sensor_id;sensor_type;location;lat;lon;timestamp;temperature;humidity
12922;DHT22;6528;48.086;16.282;2022-09-20T00:01:40;12.70;1.00
12922;DHT22;6528;48.086;16.282;2022-09-20T00:04:08;12.60;99.90
12922;DHT22;6528;48.086;16.282;2022-09-20T00:06:35;12.60;99.90
12922;DHT22;6528;48.086;16.282;2022-09-20T00:09:03;12.60;99.90
12922;DHT22;6528;48.086;16.282;2022-09-20T00:11:32;12.70;1.00
12922;DHT22;6528;48.086;16.282;2022-09-20T00:14:01;12.70;1.00
12922;DHT22;6528;48.086;16.282;2022-09-20T00:16:34;12.70;1.00
12922;DHT22;6528;48.086;16.282;2022-09-20T00:19:02;12.60;99.90
12922;DHT22;6528;48.086;16.282;2022-09-20T00:21:31;12.60;99.90
12922;DHT22;6528;48.086;16.282;2022-09-20T00:23:58;12.60;99.90
12922;DHT22;6528;48.086;16.282;2022-09-20T00:26:26;12.50;99.90
12922;DHT22;6528;48.086;16.282;2022-09-20T00:28:54;12.50;99.90
12922;DHT22;6528;48.086;16.282;2022-09-20T00:31:22;12.50;99.90
12922;DHT22;6528;48.086;16.282;2022-09-20T00:33:48;12.50;99.90
12922;DHT22;6528;48.086;16.282;2022-09-20T00:36:34;12.50;99.90
12922;DHT22;6528;48.086;16.282;2022-09-20T00:39:02;12.50;99.90
12922;DHT22;6528;48.086;16.282;2022-09-20T00:41:30;12.50;99.90
12922;DHT22;6528;48.086;16.282;2022-09-20T00:43:58;12.50;99.90
12922;DHT22;6528;48.086;16.282;2022-09-20T00:46:38;12.40;99.90
12922;DHT22;6528;48.086;16.282;2022-09-20T00:49:22;12.50;99.90
12922;DHT22;6528;48.086;16.282;2022-09-20T00:51:55;12.50;99.90
12922;DHT22;6528;48.086;16.282;2022-09-20T00:54:24;12.50;99.90
12922;DHT22;6528;48.086;16.282;2022-09-20T00:56:51;12.50;99.90
12922;DHT22;6528;48.086;16.282;2022-09-20T00:59:34;12.50;99.90
12922;DHT22;6528;48.086;16.282;2022-09-20T01:02:07;12.60;99.90
12922;DHT22;6528;48.086;16.282;2022-09-20T01:04:38;12.60;99.90
12922;DHT22;6528;48.086;16.282;2022-09-20T01:07:06;12.50;99.90
12922;DHT22;6528;48.086;16.282;2022-09-20T01:09:34;12.50;99.90
12922;DHT22;6528;48.086;16.282;2022-09-20T01:12:04;12.50;99.90
12922;DHT22;6528;48.086;16.282;2022-09-20T01:14:32;12.40;99.90
12922;DHT22;6528;48.086;16.282;2022-09-20T01:17:03;12.40;99.90
12922;DHT22;6528;48.086;16.282;2022-09-20T01:21:58;12.60;99.90
12922;DHT22;6528;48.086;16.282;2022-09-20T01:24:45;12.60;99.90
12922;DHT22;6528;48.086;16.282;2022-09-20T01:27:22;12.60;99.90
12922;DHT22;6528;48.086;16.282;2022-09-20T01:30:05;12.60;99.90
12922;DHT22;6528;48.086;16.282;2022-09-20T01:35:44;12.60;99.90
12922;DHT22;6528;48.086;16.282;2022-09-20T01:46:28;12.50;99.90
12922;DHT22;6528;48.086;16.282;2022-09-20T02:00:29;12.20;99.90
12922;DHT22;6528;48.086;16.282;2022-09-20T02:08:59;12.20;99.90
12922;DHT22;6528;48.086;16.282;2022-09-20T02:12:06;12.30;99.90
12922;DHT22;6528;48.086;16.282;2022-09-20T02:20:14;12.30;99.90
12922;DHT22;6528;48.086;16.282;2022-09-20T02:25:52;12.40;99.90
12922;DHT22;6528;48.086;16.282;2022-09-20T02:28:30;12.40;99.90
12922;DHT22;6528;48.086;16.282;2022-09-20T02:31:20;12.40;99.90
12922;DHT22;6528;48.086;16.282;2022-09-20T02:39:42;12.30;99.90
12922;DHT22;6528;48.086;16.282;2022-09-20T02:42:24;12.30;99.90
12922;DHT22;6528;48.086;16.282;2022-09-20T02:47:42;12.20;99.90
12922;DHT22;6528;48.086;16.282;2022-09-20T02:50:37;12.20;99.90
12922;DHT22;6528;48.086;16.282;2022-09-20T02:53:39;12.20;99.90
12922;DHT22;6528;48.086;16.282;2022-09-20T02:59:41;12.20;99.90
12922;DHT22;6528;48.086;16.282;2022-09-20T03:05:18;12.20;99.90
12922;DHT22;6528;48.086;16.282;2022-09-20T03:16:08;12.20;99.90
12922;DHT22;6528;48.086;16.282;2022-09-20T03:27:18;12.20;99.90
12922;DHT22;6528;48.086;16.282;2022-09-20T03:29:53;12.20;99.90
12922;DHT22;6528;48.086;16.282;2022-09-20T03:46:28;12.30;99.90
12922;DHT22;6528;48.086;16.282;2022-09-20T03:49:16;12.20;99.90
12922;DHT22;6528;48.086;16.282;2022-09-20T03:52:23;12.30;99.90
12922;DHT22;6528;48.086;16.282;2022-09-20T04:03:19;12.20;99.90
12922;DHT22;6528;48.086;16.282;2022-09-20T04:08:59;12.30;99.90
12922;DHT22;6528;48.086;16.282;2022-09-20T04:14:44;12.20;99.90
12922;DHT22;6528;48.086;16.282;2022-09-20T04:20:12;12.10;99.90
12922;DHT22;6528;48.086;16.282;2022-09-20T04:22:43;12.10;99.90
12922;DHT22;6528;48.086;16.282;2022-09-20T04:25:33;12.20;99.90
12922;DHT22;6528;48.086;16.282;2022-09-20T04:28:36;12.20;99.90
12922;DHT22;6528;48.086;16.282;2022-09-20T04:31:46;12.10;99.90
12922;DHT22;6528;48.086;16.282;2022-09-20T04:34:13;12.20;99.90
12922;DHT22;6528;48.086;16.282;2022-09-20T04:37:00;12.10;99.90
12922;DHT22;6528;48.086;16.282;2022-09-20T04:39:46;12.10;99.90
12922;DHT22;6528;48.086;16.282;2022-09-20T04:50:47;12.10;99.90
12922;DHT22;6528;48.086;16.282;2022-09-20T04:56:21;12.10;99.90
12922;DHT22;6528;48.086;16.282;2022-09-20T04:59:15;12.10;99.90
12922;DHT22;6528;48.086;16.282;2022-09-20T05:13:30;12.20;99.90
12922;DHT22;6528;48.086;16.282;2022-09-20T05:16:23;12.20;99.90
12922;DHT22;6528;48.086;16.282;2022-09-20T05:19:01;12.20;99.90
12922;DHT22;6528;48.086;16.282;2022-09-20T05:30:11;12.40;99.90
12922;DHT22;6528;48.086;16.282;2022-09-20T05:33:14;12.40;99.90
12922;DHT22;6528;48.086;16.282;2022-09-20T05:47:11;12.50;99.90
12922;DHT22;6528;48.086;16.282;2022-09-20T05:50:14;12.50;99.90
12922;DHT22;6528;48.086;16.282;2022-09-20T06:17:58;12.60;99.90
12922;DHT22;6528;48.086;16.282;2022-09-20T06:20:34;12.80;99.90
12922;DHT22;6528;48.086;16.282;2022-09-20T06:23:03;12.90;99.90
12922;DHT22;6528;48.086;16.282;2022-09-20T06:25:33;13.00;99.90
12922;DHT22;6528;48.086;16.282;2022-09-20T06:28:17;13.10;99.90
12922;DHT22;6528;48.086;16.282;2022-09-20T06:30:50;13.10;99.90
12922;DHT22;6528;48.086;16.282;2022-09-20T06:33:20;13.20;99.90
12922;DHT22;6528;48.086;16.282;2022-09-20T06:41:41;13.20;99.90
12922;DHT22;6528;48.086;16.282;2022-09-20T06:44:08;13.20;99.90
12922;DHT22;6528;48.086;16.282;2022-09-20T06:46:35;13.30;99.90
12922;DHT22;6528;48.086;16.282;2022-09-20T06:49:03;13.30;99.90
12922;DHT22;6528;48.086;16.282;2022-09-20T06:51:35;13.50;99.90
12922;DHT22;6528;48.086;16.282;2022-09-20T06:54:03;13.60;99.90
12922;DHT22;6528;48.086;16.282;2022-09-20T06:56:32;13.70;99.90
12922;DHT22;6528;48.086;16.282;2022-09-20T06:59:03;13.90;99.90
12922;DHT22;6528;48.086;16.282;2022-09-20T07:01:31;14.00;99.90
12922;DHT22;6528;48.086;16.282;2022-09-20T07:03:58;14.00;99.90
12922;DHT22;6528;48.086;16.282;2022-09-20T07:06:25;14.10;99.90
12922;DHT22;6528;48.086;16.282;2022-09-20T07:08:52;14.10;99.90
12922;DHT22;6528;48.086;16.282;2022-09-20T07:11:19;14.20;99.90
12922;DHT22;6528;48.086;16.282;2022-09-20T07:13:52;14.10;99.90
12922;DHT22;6528;48.086;16.282;2022-09-20T07:16:20;14.10;99.90
12922;DHT22;6528;48.086;16.282;2022-09-20T07:18:47;14.20;99.90
12922;DHT22;6528;48.086;16.282;2022-09-20T07:21:16;14.10;99.90
12922;DHT22;6528;48.086;16.282;2022-09-20T07:23:43;14.00;99.90
12922;DHT22;6528;48.086;16.282;2022-09-20T07:26:20;14.00;99.90
12922;DHT22;6528;48.086;16.282;2022-09-20T07:28:48;14.00;99.90
12922;DHT22;6528;48.086;16.282;2022-09-20T07:31:20;14.00;99.90
12922;DHT22;6528;48.086;16.282;2022-09-20T07:33:48;14.20;99.90
12922;DHT22;6528;48.086;16.282;2022-09-20T07:36:15;14.20;99.90
12922;DHT22;6528;48.086;16.282;2022-09-20T07:38:49;14.30;99.90
12922;DHT22;6528;48.086;16.282;2022-09-20T07:41:16;14.50;99.90
12922;DHT22;6528;48.086;16.282;2022-09-20T07:43:48;14.50;99.90
12922;DHT22;6528;48.086;16.282;2022-09-20T07:46:16;14.60;99.90
12922;DHT22;6528;48.086;16.282;2022-09-20T07:48:43;14.80;99.90
12922;DHT22;6528;48.086;16.282;2022-09-20T07:51:12;15.70;99.90
12922;DHT22;6528;48.086;16.282;2022-09-20T07:53:39;16.60;99.90
12922;DHT22;6528;48.086;16.282;2022-09-20T07:56:12;17.50;99.90
12922;DHT22;6528;48.086;16.282;2022-09-20T07:58:39;18.90;99.90
12922;DHT22;6528;48.086;16.282;2022-09-20T08:01:09;19.90;99.90
12922;DHT22;6528;48.086;16.282;2022-09-20T08:03:36;21.20;99.90
12922;DHT22;6528;48.086;16.282;2022-09-20T08:06:04;23.70;99.90
12922;DHT22;6528;48.086;16.282;2022-09-20T08:08:34;23.90;99.90
12922;DHT22;6528;48.086;16.282;2022-09-20T08:11:16;25.20;99.90
12922;DHT22;6528;48.086;16.282;2022-09-20T08:13:53;26.00;99.90
12922;DHT22;6528;48.086;16.282;2022-09-20T08:16:46;25.80;99.90
12922;DHT22;6528;48.086;16.282;2022-09-20T08:19:16;25.50;99.90
12922;DHT22;6528;48.086;16.282;2022-09-20T08:21:43;25.40;99.90
12922;DHT22;6528;48.086;16.282;2022-09-20T08:24:11;25.90;99.90
12922;DHT22;6528;48.086;16.282;2022-09-20T08:29:05;26.80;99.90
12922;DHT22;6528;48.086;16.282;2022-09-20T08:31:35;28.30;99.90
12922;DHT22;6528;48.086;16.282;2022-09-20T08:34:05;28.90;99.90
12922;DHT22;6528;48.086;16.282;2022-09-20T08:36:33;29.60;99.90
12922;DHT22;6528;48.086;16.282;2022-09-20T08:39:03;29.90;99.90
12922;DHT22;6528;48.086;16.282;2022-09-20T08:41:54;29.70;99.90
12922;DHT22;6528;48.086;16.282;2022-09-20T08:44:31;29.40;99.90
12922;DHT22;6528;48.086;16.282;2022-09-20T08:49:36;28.50;99.90
12922;DHT22;6528;48.086;16.282;2022-09-20T08:52:03;28.10;99.90
12922;DHT22;6528;48.086;16.282;2022-09-20T08:54:36;27.90;99.90
12922;DHT22;6528;48.086;16.282;2022-09-20T08:57:11;28.10;99.90
12922;DHT22;6528;48.086;16.282;2022-09-20T08:59:39;27.60;99.90
12922;DHT22;6528;48.086;16.282;2022-09-20T09:02:15;27.00;99.90
12922;DHT22;6528;48.086;16.282;2022-09-20T09:04:43;26.50;99.90
12922;DHT22;6528;48.086;16.282;2022-09-20T09:07:16;24.80;99.90
12922;DHT22;6528;48.086;16.282;2022-09-20T09:09:48;24.60;99.90
12922;DHT22;6528;48.086;16.282;2022-09-20T09:12:29;24.30;99.90
12922;DHT22;6528;48.086;16.282;2022-09-20T09:15:03;25.10;99.90
12922;DHT22;6528;48.086;16.282;2022-09-20T09:17:31;26.00;99.90
12922;DHT22;6528;48.086;16.282;2022-09-20T09:20:16;26.50;99.90
12922;DHT22;6528;48.086;16.282;2022-09-20T09:22:45;25.70;99.90
12922;DHT22;6528;48.086;16.282;2022-09-20T09:25:31;24.70;99.90
12922;DHT22;6528;48.086;16.282;2022-09-20T09:28:12;24.70;99.90
12922;DHT22;6528;48.086;16.282;2022-09-20T09:30:44;24.40;99.90
12922;DHT22;6528;48.086;16.282;2022-09-20T09:33:29;25.00;99.90
12922;DHT22;6528;48.086;16.282;2022-09-20T09:36:04;26.10;99.90
12922;DHT22;6528;48.086;16.282;2022-09-20T09:38:39;27.10;99.90
12922;DHT22;6528;48.086;16.282;2022-09-20T09:41:21;28.10;99.90
12922;DHT22;6528;48.086;16.282;2022-09-20T09:44:01;28.40;99.90
12922;DHT22;6528;48.086;16.282;2022-09-20T09:46:32;27.10;99.90
12922;DHT22;6528;48.086;16.282;2022-09-20T09:49:12;25.80;99.90
12922;DHT22;6528;48.086;16.282;2022-09-20T09:59:36;22.30;99.90
12922;DHT22;6528;48.086;16.282;2022-09-20T10:05:31;17.90;99.90
12922;DHT22;6528;48.086;16.282;2022-09-20T10:17:07;16.10;99.90
12922;DHT22;6528;48.086;16.282;2022-09-20T10:48:02;18.30;99.90
12922;DHT22;6528;48.086;16.282;2022-09-20T10:53:40;17.30;99.90
12922;DHT22;6528;48.086;16.282;2022-09-20T11:01:47;15.60;99.90
12922;DHT22;6528;48.086;16.282;2022-09-20T11:09:39;14.80;99.90
12922;DHT22;6528;48.086;16.282;2022-09-20T11:12:35;14.70;99.90
12922;DHT22;6528;48.086;16.282;2022-09-20T11:15:03;14.60;99.90
12922;DHT22;6528;48.086;16.282;2022-09-20T11:17:35;14.60;99.90
12922;DHT22;6528;48.086;16.282;2022-09-20T11:20:25;14.60;99.90
12922;DHT22;6528;48.086;16.282;2022-09-20T11:23:42;14.60;99.90
12922;DHT22;6528;48.086;16.282;2022-09-20T11:26:15;14.60;99.90
12922;DHT22;6528;48.086;16.282;2022-09-20T11:28:49;14.60;99.90
12922;DHT22;6528;48.086;16.282;2022-09-20T11:33:55;14.50;99.90
12922;DHT22;6528;48.086;16.282;2022-09-20T11:36:26;14.50;99.90
12922;DHT22;6528;48.086;16.282;2022-09-20T11:39:17;14.30;99.90
12922;DHT22;6528;48.086;16.282;2022-09-20T11:41:48;14.00;99.90
12922;DHT22;6528;48.086;16.282;2022-09-20T11:52:10;13.00;99.90
12922;DHT22;6528;48.086;16.282;2022-09-20T11:57:28;13.10;99.90
12922;DHT22;6528;48.086;16.282;2022-09-20T11:59:58;13.10;99.90
12922;DHT22;6528;48.086;16.282;2022-09-20T12:02:47;13.20;99.90
12922;DHT22;6528;48.086;16.282;2022-09-20T12:05:46;13.30;99.90
12922;DHT22;6528;48.086;16.282;2022-09-20T12:08:23;13.40;99.90
12922;DHT22;6528;48.086;16.282;2022-09-20T12:11:12;13.40;99.90
12922;DHT22;6528;48.086;16.282;2022-09-20T12:13:42;13.70;99.90
12922;DHT22;6528;48.086;16.282;2022-09-20T12:19:09;14.20;99.90
12922;DHT22;6528;48.086;16.282;2022-09-20T12:28:40;15.10;99.90
12922;DHT22;6528;48.086;16.282;2022-09-20T12:39:37;15.10;99.90
12922;DHT22;6528;48.086;16.282;2022-09-20T12:42:28;14.90;99.90
12922;DHT22;6528;48.086;16.282;2022-09-20T12:45:13;14.60;99.90
12922;DHT22;6528;48.086;16.282;2022-09-20T12:47:51;14.40;99.90
12922;DHT22;6528;48.086;16.282;2022-09-20T12:50:20;14.20;99.90
12922;DHT22;6528;48.086;16.282;2022-09-20T12:53:13;14.10;99.90
12922;DHT22;6528;48.086;16.282;2022-09-20T12:55:44;14.00;99.90
12922;DHT22;6528;48.086;16.282;2022-09-20T12:58:24;13.90;99.90
12922;DHT22;6528;48.086;16.282;2022-09-20T13:09:01;13.50;99.90
12922;DHT22;6528;48.086;16.282;2022-09-20T13:19:15;13.00;99.90
12922;DHT22;6528;48.086;16.282;2022-09-20T13:21:53;13.00;99.90
12922;DHT22;6528;48.086;16.282;2022-09-20T13:24:24;12.90;99.90
12922;DHT22;6528;48.086;16.282;2022-09-20T13:26:53;12.90;99.90
12922;DHT22;6528;48.086;16.282;2022-09-20T13:29:36;12.90;99.90
12922;DHT22;6528;48.086;16.282;2022-09-20T13:32:24;12.80;99.90
12922;DHT22;6528;48.086;16.282;2022-09-20T13:43:24;13.10;99.90
12922;DHT22;6528;48.086;16.282;2022-09-20T13:46:07;13.10;99.90
12922;DHT22;6528;48.086;16.282;2022-09-20T13:48:34;13.00;99.90
12922;DHT22;6528;48.086;16.282;2022-09-20T13:51:01;13.00;99.90
12922;DHT22;6528;48.086;16.282;2022-09-20T13:53:29;12.90;99.90
12922;DHT22;6528;48.086;16.282;2022-09-20T13:56:17;12.90;99.90
12922;DHT22;6528;48.086;16.282;2022-09-20T13:58:44;12.80;99.90
12922;DHT22;6528;48.086;16.282;2022-09-20T14:03:51;12.80;99.90
12922;DHT22;6528;48.086;16.282;2022-09-20T14:06:22;12.80;99.90
12922;DHT22;6528;48.086;16.282;2022-09-20T14:08:53;12.90;99.90
12922;DHT22;6528;48.086;16.282;2022-09-20T14:11:25;12.90;99.90
12922;DHT22;6528;48.086;16.282;2022-09-20T14:14:01;13.10;99.90
12922;DHT22;6528;48.086;16.282;2022-09-20T14:16:32;13.10;99.90
12922;DHT22;6528;48.086;16.282;2022-09-20T14:19:01;13.20;99.90
12922;DHT22;6528;48.086;16.282;2022-09-20T14:21:31;13.20;99.90
12922;DHT22;6528;48.086;16.282;2022-09-20T14:24:05;13.30;99.90
12922;DHT22;6528;48.086;16.282;2022-09-20T14:26:40;13.30;99.90
12922;DHT22;6528;48.086;16.282;2022-09-20T14:29:36;13.20;99.90
12922;DHT22;6528;48.086;16.282;2022-09-20T14:37:44;13.10;99.90
12922;DHT22;6528;48.086;16.282;2022-09-20T14:40:39;13.10;99.90
12922;DHT22;6528;48.086;16.282;2022-09-20T14:43:24;13.10;99.90
12922;DHT22;6528;48.086;16.282;2022-09-20T14:45:54;13.20;99.90
12922;DHT22;6528;48.086;16.282;2022-09-20T14:51:19;13.30;99.90
12922;DHT22;6528;48.086;16.282;2022-09-20T14:53:55;13.40;99.90
12922;DHT22;6528;48.086;16.282;2022-09-20T14:56:44;13.40;99.90
12922;DHT22;6528;48.086;16.282;2022-09-20T14:59:26;13.70;99.90
12922;DHT22;6528;48.086;16.282;2022-09-20T15:01:58;13.70;99.90
12922;DHT22;6528;48.086;16.282;2022-09-20T15:04:26;13.70;99.90
12922;DHT22;6528;48.086;16.282;2022-09-20T15:06:55;13.70;99.90
12922;DHT22;6528;48.086;16.282;2022-09-20T15:09:22;13.80;99.90
12922;DHT22;6528;48.086;16.282;2022-09-20T15:12:24;13.80;99.90
12922;DHT22;6528;48.086;16.282;2022-09-20T15:14:51;14.00;99.90
12922;DHT22;6528;48.086;16.282;2022-09-20T15:17:20;14.00;99.90
12922;DHT22;6528;48.086;16.282;2022-09-20T15:19:48;14.10;99.90
12922;DHT22;6528;48.086;16.282;2022-09-20T15:22:15;14.20;99.90
12922;DHT22;6528;48.086;16.282;2022-09-20T15:24:43;14.30;99.90
12922;DHT22;6528;48.086;16.282;2022-09-20T15:27:10;14.30;99.90
12922;DHT22;6528;48.086;16.282;2022-09-20T15:29:37;14.30;99.90
12922;DHT22;6528;48.086;16.282;2022-09-20T15:32:04;14.30;99.90
12922;DHT22;6528;48.086;16.282;2022-09-20T15:34:31;14.20;99.90
12922;DHT22;6528;48.086;16.282;2022-09-20T15:36:58;14.20;99.90
12922;DHT22;6528;48.086;16.282;2022-09-20T15:39:25;14.10;99.90
12922;DHT22;6528;48.086;16.282;2022-09-20T15:41:53;13.90;99.90
12922;DHT22;6528;48.086;16.282;2022-09-20T15:44:20;13.90;99.90
12922;DHT22;6528;48.086;16.282;2022-09-20T15:46:47;13.70;99.90
12922;DHT22;6528;48.086;16.282;2022-09-20T15:49:15;13.60;99.90
12922;DHT22;6528;48.086;16.282;2022-09-20T15:51:42;13.50;99.90
12922;DHT22;6528;48.086;16.282;2022-09-20T15:54:11;13.40;99.90
12922;DHT22;6528;48.086;16.282;2022-09-20T15:56:38;13.30;99.90
12922;DHT22;6528;48.086;16.282;2022-09-20T15:59:08;13.10;99.90
12922;DHT22;6528;48.086;16.282;2022-09-20T16:01:40;13.00;99.90
12922;DHT22;6528;48.086;16.282;2022-09-20T16:04:11;12.90;99.90
12922;DHT22;6528;48.086;16.282;2022-09-20T16:06:39;12.80;99.90
12922;DHT22;6528;48.086;16.282;2022-09-20T16:09:06;12.70;99.90
12922;DHT22;6528;48.086;16.282;2022-09-20T16:11:34;12.60;99.90
12922;DHT22;6528;48.086;16.282;2022-09-20T16:14:01;12.50;99.90
12922;DHT22;6528;48.086;16.282;2022-09-20T16:16:29;12.40;99.90
12922;DHT22;6528;48.086;16.282;2022-09-20T16:19:00;12.30;99.90
12922;DHT22;6528;48.086;16.282;2022-09-20T16:21:44;12.30;99.90
12922;DHT22;6528;48.086;16.282;2022-09-20T16:24:12;12.30;99.90
12922;DHT22;6528;48.086;16.282;2022-09-20T16:26:39;12.20;99.90
12922;DHT22;6528;48.086;16.282;2022-09-20T16:29:06;12.20;99.90
12922;DHT22;6528;48.086;16.282;2022-09-20T16:31:40;12.20;99.90
12922;DHT22;6528;48.086;16.282;2022-09-20T16:36:39;12.20;99.90
12922;DHT22;6528;48.086;16.282;2022-09-20T16:39:10;12.10;99.90
12922;DHT22;6528;48.086;16.282;2022-09-20T16:41:37;12.10;99.90
12922;DHT22;6528;48.086;16.282;2022-09-20T16:44:05;12.10;99.90
12922;DHT22;6528;48.086;16.282;2022-09-20T16:46:32;12.10;99.90
12922;DHT22;6528;48.086;16.282;2022-09-20T16:49:07;12.10;99.90
12922;DHT22;6528;48.086;16.282;2022-09-20T16:51:36;12.10;99.90
12922;DHT22;6528;48.086;16.282;2022-09-20T16:54:06;12.10;99.90
12922;DHT22;6528;48.086;16.282;2022-09-20T16:56:38;12.10;99.90
12922;DHT22;6528;48.086;16.282;2022-09-20T16:59:05;12.10;99.90
12922;DHT22;6528;48.086;16.282;2022-09-20T17:01:33;12.00;99.90
12922;DHT22;6528;48.086;16.282;2022-09-20T17:04:03;12.00;99.90
12922;DHT22;6528;48.086;16.282;2022-09-20T17:06:32;12.00;99.90
12922;DHT22;6528;48.086;16.282;2022-09-20T17:09:00;12.00;99.90
12922;DHT22;6528;48.086;16.282;2022-09-20T17:11:29;12.00;99.90
12922;DHT22;6528;48.086;16.282;2022-09-20T17:13:57;12.00;99.90
12922;DHT22;6528;48.086;16.282;2022-09-20T17:16:26;12.00;99.90
12922;DHT22;6528;48.086;16.282;2022-09-20T17:18:57;12.00;99.90
12922;DHT22;6528;48.086;16.282;2022-09-20T17:21:26;12.00;99.90
12922;DHT22;6528;48.086;16.282;2022-09-20T17:23:55;11.90;99.90
12922;DHT22;6528;48.086;16.282;2022-09-20T17:26:23;11.90;99.90
12922;DHT22;6528;48.086;16.282;2022-09-20T17:28:52;11.90;99.90
12922;DHT22;6528;48.086;16.282;2022-09-20T17:31:21;11.80;99.90
12922;DHT22;6528;48.086;16.282;2022-09-20T17:33:50;11.80;99.90
12922;DHT22;6528;48.086;16.282;2022-09-20T17:36:18;11.80;99.90
12922;DHT22;6528;48.086;16.282;2022-09-20T17:38:52;11.70;99.90
12922;DHT22;6528;48.086;16.282;2022-09-20T17:41:20;11.80;99.90
12922;DHT22;6528;48.086;16.282;2022-09-20T17:43:52;11.80;99.90
12922;DHT22;6528;48.086;16.282;2022-09-20T17:46:21;11.80;99.90
12922;DHT22;6528;48.086;16.282;2022-09-20T17:48:55;11.70;99.90
12922;DHT22;6528;48.086;16.282;2022-09-20T17:51:24;11.80;99.90
12922;DHT22;6528;48.086;16.282;2022-09-20T17:53:52;11.80;99.90
12922;DHT22;6528;48.086;16.282;2022-09-20T17:56:18;11.70;99.90
12922;DHT22;6528;48.086;16.282;2022-09-20T17:58:54;11.70;99.90
12922;DHT22;6528;48.086;16.282;2022-09-20T18:01:22;11.60;99.90
12922;DHT22;6528;48.086;16.282;2022-09-20T18:03:51;11.60;99.90
12922;DHT22;6528;48.086;16.282;2022-09-20T18:06:22;11.60;99.90
12922;DHT22;6528;48.086;16.282;2022-09-20T18:08:51;11.60;99.90
12922;DHT22;6528;48.086;16.282;2022-09-20T18:11:21;11.50;99.90
12922;DHT22;6528;48.086;16.282;2022-09-20T18:13:48;11.50;99.90
12922;DHT22;6528;48.086;16.282;2022-09-20T18:16:15;11.50;99.90
12922;DHT22;6528;48.086;16.282;2022-09-20T18:18:44;11.50;99.90
12922;DHT22;6528;48.086;16.282;2022-09-20T18:23:42;11.50;99.90
12922;DHT22;6528;48.086;16.282;2022-09-20T18:26:12;11.60;99.90
12922;DHT22;6528;48.086;16.282;2022-09-20T18:31:51;11.50;99.90
12922;DHT22;6528;48.086;16.282;2022-09-20T18:34:26;11.50;99.90
12922;DHT22;6528;48.086;16.282;2022-09-20T18:36:57;11.50;99.90
12922;DHT22;6528;48.086;16.282;2022-09-20T18:39:27;11.50;99.90
12922;DHT22;6528;48.086;16.282;2022-09-20T18:41:54;11.50;99.90
12922;DHT22;6528;48.086;16.282;2022-09-20T18:44:22;11.50;99.90
12922;DHT22;6528;48.086;16.282;2022-09-20T18:46:49;11.50;99.90
12922;DHT22;6528;48.086;16.282;2022-09-20T18:49:18;11.50;99.90
12922;DHT22;6528;48.086;16.282;2022-09-20T18:51:47;11.50;99.90
12922;DHT22;6528;48.086;16.282;2022-09-20T18:54:15;11.50;99.90
12922;DHT22;6528;48.086;16.282;2022-09-20T18:56:44;11.50;99.90
12922;DHT22;6528;48.086;16.282;2022-09-20T18:59:15;11.60;99.90
12922;DHT22;6528;48.086;16.282;2022-09-20T19:02:04;11.60;99.90
12922;DHT22;6528;48.086;16.282;2022-09-20T19:04:54;11.60;99.90
12922;DHT22;6528;48.086;16.282;2022-09-20T19:07:28;11.50;99.90
12922;DHT22;6528;48.086;16.282;2022-09-20T19:20:45;11.30;99.90
12922;DHT22;6528;48.086;16.282;2022-09-20T19:26:06;11.30;99.90
12922;DHT22;6528;48.086;16.282;2022-09-20T19:28:34;11.20;99.90
12922;DHT22;6528;48.086;16.282;2022-09-20T19:31:01;11.20;99.90
12922;DHT22;6528;48.086;16.282;2022-09-20T19:33:28;11.30;99.90
12922;DHT22;6528;48.086;16.282;2022-09-20T19:35:55;11.30;99.90
12922;DHT22;6528;48.086;16.282;2022-09-20T19:49:48;11.40;99.90
12922;DHT22;6528;48.086;16.282;2022-09-20T19:52:16;11.30;99.90
12922;DHT22;6528;48.086;16.282;2022-09-20T19:54:43;11.40;99.90
12922;DHT22;6528;48.086;16.282;2022-09-20T19:57:28;11.40;99.90
12922;DHT22;6528;48.086;16.282;2022-09-20T19:59:58;11.40;99.90
12922;DHT22;6528;48.086;16.282;2022-09-20T20:02:25;11.30;99.90
12922;DHT22;6528;48.086;16.282;2022-09-20T20:04:53;11.20;99.90
12922;DHT22;6528;48.086;16.282;2022-09-20T20:07:33;11.20;99.90
12922;DHT22;6528;48.086;16.282;2022-09-20T20:16:16;11.10;99.90
12922;DHT22;6528;48.086;16.282;2022-09-20T20:21:57;11.20;99.90
12922;DHT22;6528;48.086;16.282;2022-09-20T20:24:38;11.20;99.90
12922;DHT22;6528;48.086;16.282;2022-09-20T20:27:06;11.30;99.90
12922;DHT22;6528;48.086;16.282;2022-09-20T20:29:33;11.20;99.90
12922;DHT22;6528;48.086;16.282;2022-09-20T20:32:00;11.20;99.90
12922;DHT22;6528;48.086;16.282;2022-09-20T20:34:27;11.20;99.90
12922;DHT22;6528;48.086;16.282;2022-09-20T20:36:53;11.20;99.90
12922;DHT22;6528;48.086;16.282;2022-09-20T20:39:27;11.20;99.90
12922;DHT22;6528;48.086;16.282;2022-09-20T20:41:55;11.20;99.90
12922;DHT22;6528;48.086;16.282;2022-09-20T20:44:28;11.20;99.90
12922;DHT22;6528;48.086;16.282;2022-09-20T20:46:55;11.10;99.90
12922;DHT22;6528;48.086;16.282;2022-09-20T20:49:22;11.20;99.90
12922;DHT22;6528;48.086;16.282;2022-09-20T20:51:50;11.20;99.90
12922;DHT22;6528;48.086;16.282;2022-09-20T20:54:16;11.30;99.90
12922;DHT22;6528;48.086;16.282;2022-09-20T20:56:43;11.20;99.90
12922;DHT22;6528;48.086;16.282;2022-09-20T20:59:10;11.20;99.90
12922;DHT22;6528;48.086;16.282;2022-09-20T21:01:38;11.20;99.90
12922;DHT22;6528;48.086;16.282;2022-09-20T21:04:12;11.20;99.90
12922;DHT22;6528;48.086;16.282;2022-09-20T21:06:39;11.20;99.90
12922;DHT22;6528;48.086;16.282;2022-09-20T21:09:08;11.20;99.90
12922;DHT22;6528;48.086;16.282;2022-09-20T21:11:37;11.20;99.90
12922;DHT22;6528;48.086;16.282;2022-09-20T21:14:06;11.20;99.90
12922;DHT22;6528;48.086;16.282;2022-09-20T21:16:34;11.30;99.90
12922;DHT22;6528;48.086;16.282;2022-09-20T21:19:04;11.20;99.90
12922;DHT22;6528;48.086;16.282;2022-09-20T21:21:33;11.20;99.90
12922;DHT22;6528;48.086;16.282;2022-09-20T21:24:05;11.10;99.90
12922;DHT22;6528;48.086;16.282;2022-09-20T21:26:34;11.20;99.90
12922;DHT22;6528;48.086;16.282;2022-09-20T21:29:03;11.20;99.90
12922;DHT22;6528;48.086;16.282;2022-09-20T21:31:32;11.20;99.90
12922;DHT22;6528;48.086;16.282;2022-09-20T21:34:00;11.20;99.90
12922;DHT22;6528;48.086;16.282;2022-09-20T21:36:28;11.20;99.90
12922;DHT22;6528;48.086;16.282;2022-09-20T21:38:55;11.20;99.90
12922;DHT22;6528;48.086;16.282;2022-09-20T21:43:53;11.30;99.90
12922;DHT22;6528;48.086;16.282;2022-09-20T21:46:25;11.30;99.90
12922;DHT22;6528;48.086;16.282;2022-09-20T21:48:56;11.40;99.90
12922;DHT22;6528;48.086;16.282;2022-09-20T21:51:25;11.30;99.90
12922;DHT22;6528;48.086;16.282;2022-09-20T21:53:52;11.20;99.90
12922;DHT22;6528;48.086;16.282;2022-09-20T21:56:19;11.20;99.90
12922;DHT22;6528;48.086;16.282;2022-09-20T21:58:46;11.10;99.90
12922;DHT22;6528;48.086;16.282;2022-09-20T22:01:14;11.10;99.90
12922;DHT22;6528;48.086;16.282;2022-09-20T22:03:45;11.10;99.90